createdAt,value
2023-03-12T00:01:22.663Z,15.00
2023-03-12T00:03:54.257Z,13.10
2023-03-12T00:06:22.768Z,14.70
2023-03-12T00:08:50.955Z,13.30
2023-03-12T00:11:21.187Z,15.90
2023-03-12T00:13:54.641Z,12.20
2023-03-12T00:16:24.082Z,11.80
2023-03-12T00:18:54.599Z,16.00
2023-03-12T00:21:23.864Z,12.10
2023-03-12T00:23:53.130Z,12.40
2023-03-12T00:26:22.449Z,11.50
2023-03-12T00:28:51.262Z,10.80
2023-03-12T00:31:27.718Z,14.20
2023-03-12T00:33:56.986Z,14.90
2023-03-12T00:36:28.023Z,9.50
2023-03-12T00:38:57.896Z,10.60
2023-03-12T00:41:27.701Z,10.60
2023-03-12T00:43:55.977Z,16.00
2023-03-12T00:46:24.291Z,12.30
2023-03-12T00:48:52.409Z,9.80
2023-03-12T00:51:20.842Z,11.60
2023-03-12T00:53:48.974Z,12.10
2023-03-12T00:56:17.302Z,9.90
2023-03-12T00:58:46.370Z,9.60
2023-03-12T01:01:14.620Z,10.20
2023-03-12T01:03:42.782Z,13.60
2023-03-12T01:06:10.897Z,9.90
2023-03-12T01:08:39.313Z,8.70
2023-03-12T01:11:27.067Z,12.10
2023-03-12T01:14:00.385Z,13.50
2023-03-12T01:16:30.390Z,10.50
2023-03-12T01:18:59.850Z,8.10
2023-03-12T01:21:30.637Z,12.00
2023-03-12T01:23:59.524Z,9.20
2023-03-12T01:26:28.166Z,9.00
2023-03-12T01:28:56.360Z,10.20
2023-03-12T01:31:25.190Z,7.30
2023-03-12T01:33:54.441Z,9.70
2023-03-12T01:36:26.620Z,11.10
2023-03-12T01:38:57.719Z,7.50
2023-03-12T01:41:28.483Z,7.20
2023-03-12T01:43:56.613Z,10.80
2023-03-12T01:46:33.906Z,8.20
2023-03-12T01:49:09.781Z,8.10
2023-03-12T01:51:58.820Z,9.40
2023-03-12T01:54:31.217Z,9.10
2023-03-12T01:57:00.193Z,10.30
2023-03-12T01:59:41.280Z,8.50
2023-03-12T02:02:09.744Z,10.40
2023-03-12T02:04:39.042Z,7.00
2023-03-12T02:07:16.028Z,7.70
2023-03-12T02:09:48.678Z,5.00
2023-03-12T02:12:17.989Z,7.90
2023-03-12T02:14:46.089Z,10.70
2023-03-12T02:17:14.092Z,10.40
2023-03-12T02:20:02.202Z,9.90
2023-03-12T02:22:30.565Z,8.10
2023-03-12T02:25:04.570Z,5.90
2023-03-12T02:27:34.599Z,12.30
2023-03-12T02:30:05.329Z,8.30
2023-03-12T02:32:38.697Z,8.40
2023-03-12T02:35:07.218Z,6.90
2023-03-12T02:37:35.411Z,7.00
2023-03-12T02:40:14.065Z,11.10
2023-03-12T02:42:42.108Z,5.60
2023-03-12T02:45:10.371Z,5.70
2023-03-12T02:47:38.397Z,9.20
2023-03-12T02:50:07.215Z,6.10
2023-03-12T02:52:37.338Z,6.20
2023-03-12T02:55:06.631Z,6.80
2023-03-12T02:57:37.708Z,5.80
2023-03-12T03:00:13.706Z,7.40
2023-03-12T03:02:42.516Z,5.90
2023-03-12T03:05:12.450Z,6.70
2023-03-12T03:07:40.617Z,8.40
2023-03-12T03:10:10.417Z,11.70
2023-03-12T03:12:38.604Z,12.80
2023-03-12T03:15:07.519Z,9.80
2023-03-12T03:17:35.840Z,11.50
2023-03-12T03:20:14.988Z,8.30
2023-03-12T03:22:43.033Z,4.40
2023-03-12T03:25:11.481Z,9.30
2023-03-12T03:27:39.656Z,7.00
2023-03-12T03:30:09.228Z,6.40
2023-03-12T03:32:38.427Z,5.60
2023-03-12T03:35:07.215Z,10.30
2023-03-12T03:37:35.303Z,7.60
2023-03-12T03:40:03.826Z,9.20
2023-03-12T03:42:31.909Z,7.20
2023-03-12T03:44:59.973Z,9.40
2023-03-12T03:47:28.008Z,8.00
2023-03-12T03:49:55.989Z,4.80
2023-03-12T03:52:24.097Z,4.50
2023-03-12T03:54:53.529Z,7.70
2023-03-12T03:57:21.645Z,9.10
2023-03-12T03:59:49.994Z,11.20
2023-03-12T04:02:18.635Z,7.10
2023-03-12T04:04:46.741Z,6.90
2023-03-12T04:07:14.745Z,12.70
2023-03-12T04:09:43.567Z,9.40
2023-03-12T04:12:12.080Z,6.90
2023-03-12T04:14:42.311Z,7.90
2023-03-12T04:17:10.420Z,6.70
2023-03-12T04:19:38.764Z,6.20
2023-03-12T04:22:06.792Z,7.50
2023-03-12T04:24:35.060Z,6.00
2023-03-12T04:27:03.029Z,11.30
2023-03-12T04:29:31.073Z,6.00
2023-03-12T04:31:59.099Z,8.80
2023-03-12T04:34:27.149Z,7.50
2023-03-12T04:36:55.275Z,5.90
2023-03-12T04:39:23.306Z,8.10
2023-03-12T04:41:51.438Z,6.30
2023-03-12T04:44:19.511Z,5.80
2023-03-12T04:46:47.807Z,8.80
2023-03-12T04:49:16.114Z,6.00
2023-03-12T04:51:44.276Z,6.20
2023-03-12T04:54:12.631Z,6.10
2023-03-12T04:56:41.046Z,9.10
2023-03-12T04:59:09.503Z,9.00
2023-03-12T05:01:38.152Z,7.30
2023-03-12T05:04:06.939Z,6.40
2023-03-12T05:06:35.524Z,6.50
2023-03-12T05:09:04.157Z,7.70
2023-03-12T05:11:39.207Z,6.80
2023-03-12T05:14:11.808Z,5.30
2023-03-12T05:16:40.529Z,10.20
2023-03-12T05:19:08.884Z,8.40
2023-03-12T05:21:37.777Z,5.60
2023-03-12T05:24:06.212Z,7.20
2023-03-12T05:26:35.408Z,8.20
2023-03-12T05:29:05.715Z,11.00
2023-03-12T05:31:35.569Z,10.10
2023-03-12T05:34:04.945Z,20.80
2023-03-12T05:36:36.390Z,10.60
2023-03-12T05:39:06.119Z,7.30
2023-03-12T05:41:36.723Z,6.90
2023-03-12T05:44:05.216Z,6.70
2023-03-12T05:46:33.496Z,8.50
2023-03-12T05:49:01.921Z,6.00
2023-03-12T05:51:30.411Z,6.60
2023-03-12T05:53:59.566Z,9.30
2023-03-12T05:56:28.773Z,9.70
2023-03-12T05:58:57.032Z,17.10
2023-03-12T06:01:31.248Z,18.30
2023-03-12T06:04:00.108Z,10.90
2023-03-12T06:06:32.272Z,9.50
2023-03-12T06:09:16.327Z,7.30
2023-03-12T06:12:54.206Z,7.60
2023-03-12T06:15:34.468Z,11.40
2023-03-12T06:21:40.905Z,7.10
2023-03-12T06:24:13.688Z,7.10
2023-03-12T06:26:42.543Z,8.20
2023-03-12T06:29:10.964Z,12.00
2023-03-12T06:31:39.997Z,9.30
2023-03-12T06:34:11.384Z,7.40
2023-03-12T06:36:41.768Z,8.70
2023-03-12T06:39:30.412Z,8.90
2023-03-12T06:41:59.503Z,6.90
2023-03-12T06:44:28.311Z,10.10
2023-03-12T06:46:56.748Z,6.70
2023-03-12T06:49:32.299Z,8.20
2023-03-12T06:52:00.580Z,6.60
2023-03-12T06:54:29.038Z,7.70
2023-03-12T06:56:59.803Z,9.10
2023-03-12T06:59:28.621Z,7.80
2023-03-12T07:01:57.146Z,7.00
2023-03-12T07:04:25.371Z,9.80
2023-03-12T07:06:55.073Z,11.30
2023-03-12T07:09:23.554Z,12.90
2023-03-12T07:11:52.027Z,11.00
2023-03-12T07:14:21.509Z,8.70
2023-03-12T07:16:50.001Z,9.70
2023-03-12T07:19:19.725Z,7.40
2023-03-12T07:21:47.851Z,8.70
2023-03-12T07:24:18.010Z,8.90
2023-03-12T07:26:46.625Z,12.30
2023-03-12T07:29:14.917Z,9.30
2023-03-12T07:31:42.985Z,10.90
2023-03-12T07:34:11.138Z,7.90
2023-03-12T07:36:39.425Z,9.20
2023-03-12T07:39:08.304Z,9.50
2023-03-12T07:41:37.478Z,10.50
2023-03-12T07:44:06.057Z,7.70
2023-03-12T07:46:34.598Z,7.90
2023-03-12T07:49:02.788Z,9.70
2023-03-12T07:51:30.994Z,8.90
2023-03-12T07:53:59.004Z,6.20
2023-03-12T07:56:27.386Z,5.90
2023-03-12T07:58:55.799Z,10.70
2023-03-12T08:01:25.543Z,7.70
2023-03-12T08:03:53.491Z,10.20
2023-03-12T08:06:21.856Z,8.00
2023-03-12T08:08:49.986Z,10.20
2023-03-12T08:11:18.735Z,9.10
2023-03-12T08:13:47.215Z,6.90
2023-03-12T08:16:15.355Z,14.80
2023-03-12T08:18:43.477Z,8.00
2023-03-12T08:21:11.686Z,6.20
2023-03-12T08:23:40.028Z,9.40
2023-03-12T08:26:08.760Z,14.10
2023-03-12T08:28:37.349Z,10.30
2023-03-12T08:31:06.000Z,9.10
2023-03-12T08:33:41.371Z,10.30
2023-03-12T08:38:38.662Z,9.40
2023-03-12T08:41:07.467Z,7.30
2023-03-12T08:43:36.007Z,9.70
2023-03-12T08:46:07.333Z,10.30
2023-03-12T08:48:37.677Z,12.90
2023-03-12T08:51:07.647Z,10.20
2023-03-12T08:53:37.509Z,7.60
2023-03-12T08:56:06.732Z,11.00
2023-03-12T08:58:34.778Z,8.40
2023-03-12T09:01:08.237Z,6.90
2023-03-12T09:03:36.386Z,11.30
2023-03-12T09:06:16.880Z,9.80
2023-03-12T09:08:49.343Z,12.40
2023-03-12T09:11:18.190Z,8.70
2023-03-12T09:16:35.877Z,12.20
2023-03-12T09:19:04.983Z,8.00
2023-03-12T09:21:33.309Z,8.50
2023-03-12T09:24:01.546Z,9.10
2023-03-12T09:26:29.774Z,6.80
2023-03-12T09:28:58.887Z,6.20
2023-03-12T09:31:27.951Z,8.60
2023-03-12T09:33:56.579Z,8.80
2023-03-12T09:36:25.317Z,6.20
2023-03-12T09:38:55.230Z,6.60
2023-03-12T09:41:33.470Z,8.90
2023-03-12T09:44:17.383Z,7.30
2023-03-12T09:46:52.297Z,8.80
2023-03-12T09:49:50.174Z,6.80
2023-03-12T09:52:44.892Z,8.60
2023-03-12T09:55:23.821Z,7.70
2023-03-12T09:57:52.817Z,9.50
2023-03-12T10:00:24.818Z,7.20
2023-03-12T10:03:19.741Z,12.00
2023-03-12T10:06:04.534Z,6.60
2023-03-12T10:08:42.133Z,10.10
2023-03-12T10:11:33.767Z,8.80
2023-03-12T10:14:24.133Z,7.60
2023-03-12T10:17:17.760Z,9.70
2023-03-12T10:20:43.603Z,6.70
2023-03-12T10:23:54.833Z,5.60
2023-03-12T10:26:25.729Z,5.50
2023-03-12T10:29:44.417Z,6.80
2023-03-12T10:32:45.461Z,4.30
2023-03-12T10:35:26.828Z,5.80
2023-03-12T10:37:59.223Z,10.80
2023-03-12T10:40:34.433Z,6.50
2023-03-12T10:43:03.866Z,8.90
2023-03-12T10:46:10.858Z,9.40
2023-03-12T10:48:38.796Z,5.60
2023-03-12T10:51:09.257Z,5.00
2023-03-12T10:53:48.495Z,5.20
2023-03-12T10:56:20.256Z,6.50
2023-03-12T10:58:51.773Z,7.90
2023-03-12T11:01:22.696Z,7.50
2023-03-12T11:03:52.691Z,7.60
2023-03-12T11:06:27.897Z,5.80
2023-03-12T11:09:21.631Z,7.80
2023-03-12T11:11:50.624Z,6.30
2023-03-12T11:14:24.168Z,6.30
2023-03-12T11:16:53.813Z,6.10
2023-03-12T11:19:35.250Z,5.50
2023-03-12T11:22:08.241Z,10.20
2023-03-12T11:24:36.518Z,7.20
2023-03-12T11:27:39.619Z,7.10
2023-03-12T11:30:17.390Z,6.40
2023-03-12T11:32:50.664Z,6.20
2023-03-12T11:35:34.598Z,8.10
2023-03-12T11:38:31.532Z,6.20
2023-03-12T11:41:23.420Z,8.90
2023-03-12T11:44:12.824Z,10.70
2023-03-12T11:46:53.507Z,4.50
2023-03-12T11:49:31.887Z,8.00
2023-03-12T11:52:13.901Z,7.20
2023-03-12T11:55:03.658Z,6.50
2023-03-12T11:57:44.355Z,4.40
2023-03-12T12:00:20.802Z,5.20
2023-03-12T12:03:31.966Z,7.40
2023-03-12T12:06:53.840Z,9.80
2023-03-12T12:10:00.197Z,9.70
2023-03-12T12:12:52.621Z,7.90
2023-03-12T12:15:37.766Z,5.70
2023-03-12T12:18:27.702Z,7.30
2023-03-12T12:21:23.726Z,6.70
2023-03-12T12:23:51.840Z,5.50
2023-03-12T12:27:01.258Z,3.70
2023-03-12T12:29:36.628Z,5.20
2023-03-12T12:32:05.859Z,7.00
2023-03-12T12:34:42.867Z,9.80
2023-03-12T12:37:46.863Z,6.60
2023-03-12T12:40:37.593Z,5.10
2023-03-12T12:43:29.871Z,4.60
2023-03-12T12:46:03.830Z,6.10
2023-03-12T12:48:57.956Z,6.60
2023-03-12T12:51:32.066Z,5.10
2023-03-12T12:54:17.437Z,6.30
2023-03-12T12:57:10.346Z,7.40
2023-03-12T13:00:14.817Z,6.10
2023-03-12T13:02:45.054Z,7.40
2023-03-12T13:05:37.940Z,5.70
2023-03-12T13:08:10.765Z,6.70
2023-03-12T13:10:48.714Z,7.60
2023-03-12T13:13:27.413Z,6.20
2023-03-12T13:16:20.485Z,7.40
2023-03-12T13:19:23.110Z,8.30
2023-03-12T13:22:18.538Z,8.50
2023-03-12T13:25:01.828Z,7.00
2023-03-12T13:27:42.941Z,4.60
2023-03-12T13:30:33.400Z,6.70
2023-03-12T13:33:02.031Z,8.40
2023-03-12T13:35:36.930Z,6.50
2023-03-12T13:38:13.128Z,9.30
2023-03-12T13:41:02.166Z,7.00
2023-03-12T13:43:39.325Z,4.50
2023-03-12T13:46:22.015Z,5.40
2023-03-12T13:48:50.443Z,8.70
2023-03-12T13:51:24.504Z,9.20
2023-03-12T13:54:02.020Z,6.40
2023-03-12T13:56:33.430Z,7.00
2023-03-12T13:59:16.181Z,6.50
2023-03-12T14:01:51.471Z,7.00
2023-03-12T14:04:30.081Z,4.70
2023-03-12T14:07:49.639Z,5.50
2023-03-12T14:10:30.047Z,5.20
2023-03-12T14:13:19.092Z,4.80
2023-03-12T14:16:06.610Z,7.10
2023-03-12T14:18:36.701Z,8.90
2023-03-12T14:21:10.783Z,6.80
2023-03-12T14:23:47.482Z,5.70
2023-03-12T14:26:24.706Z,7.10
2023-03-12T14:29:18.898Z,5.30
2023-03-12T14:31:48.821Z,9.00
2023-03-12T14:34:21.975Z,7.20
2023-03-12T14:37:03.312Z,5.40
2023-03-12T14:40:19.446Z,5.20
2023-03-12T14:42:48.320Z,6.80
2023-03-12T14:45:23.746Z,6.50
2023-03-12T14:47:58.939Z,4.90
2023-03-12T14:50:31.083Z,4.60
2023-03-12T14:53:14.135Z,6.00
2023-03-12T14:58:19.981Z,5.10
2023-03-12T15:01:01.187Z,4.70
2023-03-12T15:03:29.903Z,11.30
2023-03-12T15:05:58.215Z,4.70
2023-03-12T15:08:26.435Z,7.10
2023-03-12T15:10:57.798Z,5.90
2023-03-12T15:13:27.557Z,8.20
2023-03-12T15:15:56.020Z,6.50
2023-03-12T15:18:31.564Z,6.90
2023-03-12T15:21:03.076Z,6.50
2023-03-12T15:23:35.161Z,5.30
2023-03-12T15:26:28.445Z,8.90
2023-03-12T15:34:14.330Z,7.80
2023-03-12T15:36:50.227Z,7.30
2023-03-12T15:39:33.597Z,6.50
2023-03-12T15:42:16.774Z,5.50
2023-03-12T15:45:00.048Z,9.20
2023-03-12T15:50:19.029Z,7.10
2023-03-12T15:53:31.114Z,9.80
2023-03-12T15:56:04.104Z,9.40
2023-03-12T15:58:38.354Z,11.70
2023-03-12T16:01:09.379Z,6.20
2023-03-12T16:03:39.276Z,7.70
2023-03-12T16:06:20.093Z,7.00
2023-03-12T16:09:00.546Z,6.40
2023-03-12T16:11:32.618Z,8.30
2023-03-12T16:14:20.169Z,5.40
2023-03-12T16:16:48.751Z,5.10
2023-03-12T16:19:21.011Z,7.10
2023-03-12T16:21:49.975Z,3.90
2023-03-12T16:24:18.061Z,8.70
2023-03-12T16:26:59.488Z,7.20
2023-03-12T16:29:35.753Z,6.40
2023-03-12T16:32:16.044Z,6.70
2023-03-12T16:34:45.557Z,6.50
2023-03-12T16:37:16.581Z,7.40
2023-03-12T16:39:46.562Z,6.40
2023-03-12T16:42:22.802Z,7.20
2023-03-12T16:44:51.681Z,11.20
2023-03-12T16:47:22.479Z,10.50
2023-03-12T16:49:50.901Z,13.50
2023-03-12T16:52:26.866Z,15.80
2023-03-12T16:54:55.371Z,16.20
2023-03-12T16:57:38.660Z,16.60
2023-03-12T17:00:13.443Z,16.00
2023-03-12T17:02:41.554Z,18.50
2023-03-12T17:05:09.942Z,22.10
2023-03-12T17:07:39.197Z,19.40
2023-03-12T17:10:11.365Z,26.80
2023-03-12T17:12:42.617Z,33.70
2023-03-12T17:15:27.037Z,47.20
2023-03-12T17:17:56.991Z,66.80
2023-03-12T17:20:25.630Z,65.00
2023-03-12T17:22:53.808Z,51.60
2023-03-12T17:25:29.771Z,36.20
2023-03-12T17:27:58.393Z,41.60
2023-03-12T17:30:29.233Z,61.20
2023-03-12T17:33:15.260Z,63.30
2023-03-12T17:35:47.736Z,49.70
2023-03-12T17:38:19.027Z,34.30
2023-03-12T17:40:56.461Z,29.30
2023-03-12T17:43:43.684Z,34.50
2023-03-12T17:46:20.559Z,38.20
2023-03-12T17:48:58.522Z,37.70
2023-03-12T17:51:29.095Z,41.90
2023-03-12T17:54:07.054Z,48.20
2023-03-12T17:56:35.369Z,44.50
2023-03-12T17:59:06.087Z,48.20
2023-03-12T18:01:39.424Z,33.50
2023-03-12T18:04:07.818Z,40.40
2023-03-12T18:06:38.942Z,22.20
2023-03-12T18:09:07.461Z,39.70
2023-03-12T18:11:39.638Z,57.80
2023-03-12T18:14:09.413Z,55.40
2023-03-12T18:16:38.638Z,36.60
2023-03-12T18:19:08.574Z,31.00
2023-03-12T18:21:37.974Z,25.20
2023-03-12T18:24:14.211Z,33.20
2023-03-12T18:26:45.595Z,30.10
2023-03-12T18:29:14.023Z,30.70
2023-03-12T18:31:42.407Z,33.60
2023-03-12T18:34:11.449Z,27.80
2023-03-12T18:36:39.760Z,27.20
2023-03-12T18:39:10.047Z,21.50
2023-03-12T18:41:42.153Z,22.80
2023-03-12T18:44:10.969Z,21.60
2023-03-12T18:46:39.591Z,26.30
2023-03-12T18:49:12.573Z,22.80
2023-03-12T18:51:42.150Z,27.60
2023-03-12T18:54:10.225Z,33.20
2023-03-12T18:56:41.036Z,36.10
2023-03-12T18:59:16.021Z,34.20
2023-03-12T19:01:44.930Z,32.20
2023-03-12T19:04:19.483Z,35.70
2023-03-12T19:06:51.999Z,32.50
2023-03-12T19:09:22.065Z,40.50
2023-03-12T19:11:50.554Z,34.30
2023-03-12T19:14:21.833Z,35.20
2023-03-12T19:16:50.115Z,27.50
2023-03-12T19:19:21.978Z,38.60
2023-03-12T19:21:53.124Z,30.60
2023-03-12T19:24:21.834Z,28.60
2023-03-12T19:26:50.068Z,31.60
2023-03-12T19:29:18.189Z,29.40
2023-03-12T19:31:46.408Z,24.10
2023-03-12T19:34:14.848Z,27.10
2023-03-12T19:36:43.830Z,28.30
2023-03-12T19:39:21.129Z,28.90
2023-03-12T19:41:50.993Z,29.70
2023-03-12T19:44:22.479Z,26.60
2023-03-12T19:46:51.239Z,23.10
2023-03-12T19:49:20.428Z,19.30
2023-03-12T19:51:48.658Z,16.80
2023-03-12T19:54:17.228Z,19.10
2023-03-12T19:56:51.206Z,21.60
2023-03-12T19:59:19.707Z,25.40
2023-03-12T20:01:48.771Z,19.50
2023-03-12T20:04:25.302Z,19.70
2023-03-12T20:06:53.688Z,13.00
2023-03-12T20:09:22.474Z,11.40
2023-03-12T20:11:51.945Z,11.70
2023-03-12T20:14:20.626Z,13.00
2023-03-12T20:16:48.989Z,11.30
2023-03-12T20:19:17.597Z,11.30
2023-03-12T20:21:48.326Z,10.90
2023-03-12T20:24:16.623Z,13.10
2023-03-12T20:26:45.443Z,10.00
2023-03-12T20:29:13.572Z,13.10
2023-03-12T20:31:44.876Z,12.70
2023-03-12T20:34:12.956Z,13.00
2023-03-12T20:36:41.277Z,17.50
2023-03-12T20:39:09.378Z,13.20
2023-03-12T20:41:37.737Z,11.80
2023-03-12T20:44:06.201Z,8.10
2023-03-12T20:46:34.573Z,7.90
2023-03-12T20:49:03.989Z,10.70
2023-03-12T20:51:32.587Z,10.40
2023-03-12T20:54:00.677Z,12.50
2023-03-12T20:56:28.758Z,10.70
2023-03-12T20:58:57.406Z,10.40
2023-03-12T21:01:25.924Z,9.50
2023-03-12T21:03:59.458Z,8.70
2023-03-12T21:06:28.253Z,9.20
2023-03-12T21:08:57.910Z,9.70
2023-03-12T21:11:31.477Z,9.80
2023-03-12T21:13:59.627Z,9.30
2023-03-12T21:16:27.911Z,10.70
2023-03-12T21:18:59.146Z,7.80
2023-03-12T21:21:27.815Z,9.40
2023-03-12T21:23:55.936Z,11.00
2023-03-12T21:26:24.275Z,11.60
2023-03-12T21:29:11.675Z,9.70
2023-03-12T21:31:39.944Z,11.50
2023-03-12T21:34:09.502Z,10.90
2023-03-12T21:36:37.910Z,10.10
2023-03-12T21:39:06.170Z,11.30
2023-03-12T21:41:34.221Z,8.80
2023-03-12T21:44:02.884Z,10.30
2023-03-12T21:46:31.278Z,9.70
2023-03-12T21:48:59.251Z,10.00
2023-03-12T21:51:27.310Z,16.00
2023-03-12T21:53:56.974Z,9.60
2023-03-12T21:56:29.343Z,13.50
2023-03-12T21:58:58.111Z,10.50
2023-03-12T22:01:26.182Z,11.60
2023-03-12T22:03:54.412Z,13.00
2023-03-12T22:06:22.579Z,11.70
2023-03-12T22:08:52.319Z,10.10
2023-03-12T22:11:20.495Z,11.90
2023-03-12T22:13:48.961Z,15.20
2023-03-12T22:16:17.405Z,11.80
2023-03-12T22:18:46.553Z,10.00
2023-03-12T22:21:21.279Z,11.20
2023-03-12T22:23:52.509Z,12.60
2023-03-12T22:26:23.419Z,13.50
2023-03-12T22:28:54.185Z,13.00
2023-03-12T22:31:24.736Z,11.90
2023-03-12T22:33:53.094Z,9.20
2023-03-12T22:36:23.523Z,13.80
2023-03-12T22:38:52.166Z,15.00
2023-03-12T22:41:26.494Z,12.20
2023-03-12T22:43:57.922Z,13.40
2023-03-12T22:46:28.438Z,11.00
2023-03-12T22:48:59.741Z,10.30
2023-03-12T22:51:30.585Z,11.80
2023-03-12T22:53:59.418Z,11.40
2023-03-12T22:56:27.844Z,12.10
2023-03-12T22:58:56.415Z,11.50
2023-03-12T23:01:25.107Z,13.60
2023-03-12T23:03:53.858Z,11.70
2023-03-12T23:06:25.709Z,10.20
2023-03-12T23:08:55.264Z,10.70
2023-03-12T23:11:25.544Z,10.40
2023-03-12T23:13:54.925Z,13.50
2023-03-12T23:16:25.680Z,9.60
2023-03-12T23:18:54.017Z,13.00
2023-03-12T23:21:23.889Z,11.50
2023-03-12T23:23:52.915Z,10.40
2023-03-12T23:26:26.933Z,12.70
2023-03-12T23:28:56.109Z,12.80
2023-03-12T23:31:24.912Z,14.30
2023-03-12T23:33:53.081Z,14.20
2023-03-12T23:36:23.260Z,13.70
2023-03-12T23:38:51.585Z,12.80
2023-03-12T23:41:25.551Z,15.00
2023-03-12T23:43:53.526Z,15.50
2023-03-12T23:46:21.861Z,16.90
2023-03-12T23:48:50.787Z,14.00
2023-03-12T23:51:25.321Z,17.00
2023-03-12T23:53:58.313Z,16.30
2023-03-12T23:56:30.939Z,13.50
2023-03-12T23:58:59.101Z,13.70
